TimeCDT,TemperatureF,Dew PointF,Humidity,Sea Level PressureIn,VisibilityMPH,Wind Direction,Wind SpeedMPH,Gust SpeedMPH,PrecipitationIn,Events,Conditions,WindDirDegrees,DateUTC
12:52 AM,55.9,46.0,69,30.13,10.0,South,9.2,-,N/A,,Clear,170,2013-10-09 05:52:00
1:52 AM,57.0,46.0,67,30.13,10.0,South,9.2,-,N/A,,Clear,170,2013-10-09 06:52:00
2:52 AM,53.1,45.0,74,30.14,10.0,South,6.9,-,N/A,,Clear,170,2013-10-09 07:52:00
3:52 AM,53.1,46.0,77,30.14,10.0,South,6.9,-,N/A,,Clear,180,2013-10-09 08:52:00
4:52 AM,48.9,44.1,83,30.16,10.0,South,4.6,-,N/A,,Clear,170,2013-10-09 09:52:00
5:52 AM,46.9,43.0,86,30.18,10.0,SE,6.9,-,N/A,,Clear,140,2013-10-09 10:52:00
6:52 AM,45.0,42.1,90,30.19,10.0,SE,4.6,-,N/A,,Clear,130,2013-10-09 11:52:00
7:52 AM,50.0,46.0,86,30.20,10.0,SE,5.8,-,N/A,,Clear,130,2013-10-09 12:52:00
8:52 AM,55.9,48.0,75,30.20,10.0,SE,8.1,-,N/A,,Clear,140,2013-10-09 13:52:00
9:52 AM,62.1,46.9,58,30.21,10.0,SE,6.9,-,N/A,,Clear,140,2013-10-09 14:52:00
10:52 AM,66.0,46.0,48,30.21,10.0,South,6.9,-,N/A,,Clear,170,2013-10-09 15:52:00
11:52 AM,69.1,46.0,44,30.19,10.0,South,8.1,-,N/A,,Clear,190,2013-10-09 16:52:00
12:52 PM,70.0,44.1,39,30.17,10.0,Variable,4.6,-,N/A,,Clear,0,2013-10-09 17:52:00
1:52 PM,73.0,39.9,30,30.14,10.0,South,8.1,16.1,N/A,,Clear,180,2013-10-09 18:52:00
2:52 PM,73.0,39.0,29,30.13,10.0,SE,6.9,-,N/A,,Clear,130,2013-10-09 19:52:00
3:52 PM,75.0,37.9,26,30.12,10.0,SSE,9.2,-,N/A,,Clear,150,2013-10-09 20:52:00
4:52 PM,73.0,37.9,28,30.12,10.0,SE,11.5,-,N/A,,Clear,140,2013-10-09 21:52:00
5:52 PM,69.1,42.1,38,30.11,10.0,SE,6.9,-,N/A,,Clear,130,2013-10-09 22:52:00
6:52 PM,57.0,42.1,57,30.12,10.0,SE,6.9,-,N/A,,Clear,130,2013-10-09 23:52:00
7:52 PM,55.9,43.0,62,30.12,10.0,SE,6.9,-,N/A,,Clear,130,2013-10-10 00:52:00
8:52 PM,51.1,43.0,74,30.13,10.0,SE,3.5,-,N/A,,Clear,130,2013-10-10 01:52:00
9:52 PM,50.0,44.1,80,30.14,10.0,Calm,Calm,-,N/A,,Clear,0,2013-10-10 02:52:00
10:52 PM,50.0,44.1,80,30.13,10.0,ESE,3.5,-,N/A,,Clear,110,2013-10-10 03:52:00
11:52 PM,48.9,44.1,83,30.13,10.0,Calm,Calm,-,N/A,,Clear,0,2013-10-10 04:52:00